sensor_id;sensor_type;location;lat;lon;timestamp;pressure;altitude;pressure_sealevel;temperature;humidity
75891;BME280;64571;47.512;19.054;2022-11-15T00:00:24;100973.28;;;5.91;90.99
75891;BME280;64571;47.512;19.054;2022-11-15T00:03:45;100994.50;;;6.07;90.70
75891;BME280;64571;47.512;19.054;2022-11-15T00:07:07;100988.81;;;5.97;91.01
75891;BME280;64571;47.512;19.054;2022-11-15T00:10:27;100986.91;;;5.97;90.77
75891;BME280;64571;47.512;19.054;2022-11-15T00:13:48;100986.00;;;5.92;90.76
75891;BME280;64571;47.512;19.054;2022-11-15T00:17:09;100992.69;;;5.96;90.53
75891;BME280;64571;47.512;19.054;2022-11-15T00:20:30;100979.06;;;5.72;91.00
75891;BME280;64571;47.512;19.054;2022-11-15T00:23:51;100991.25;;;5.76;91.17
75891;BME280;64571;47.512;19.054;2022-11-15T00:27:12;100967.09;;;5.67;91.15
75891;BME280;64571;47.512;19.054;2022-11-15T00:30:33;100991.75;;;5.73;91.00
75891;BME280;64571;47.512;19.054;2022-11-15T00:33:55;100973.28;;;5.57;91.06
75891;BME280;64571;47.512;19.054;2022-11-15T00:37:16;100987.91;;;5.74;90.90
75891;BME280;64571;47.512;19.054;2022-11-15T00:40:37;100961.91;;;5.53;90.91
75891;BME280;64571;47.512;19.054;2022-11-15T00:43:57;100959.50;;;5.57;90.73
75891;BME280;64571;47.512;19.054;2022-11-15T00:47:18;100951.06;;;5.47;90.72
75891;BME280;64571;47.512;19.054;2022-11-15T00:50:39;100971.19;;;5.64;90.71
75891;BME280;64571;47.512;19.054;2022-11-15T00:54:00;100960.59;;;5.73;90.41
75891;BME280;64571;47.512;19.054;2022-11-15T00:57:21;100934.44;;;5.58;90.58
75891;BME280;64571;47.512;19.054;2022-11-15T01:00:42;100955.41;;;5.76;90.46
75891;BME280;64571;47.512;19.054;2022-11-15T01:04:03;100953.28;;;5.67;90.64
75891;BME280;64571;47.512;19.054;2022-11-15T01:07:23;100962.16;;;5.69;90.63
75891;BME280;64571;47.512;19.054;2022-11-15T01:10:44;100947.72;;;5.62;90.39
75891;BME280;64571;47.512;19.054;2022-11-15T01:14:05;100959.50;;;5.74;90.09
75891;BME280;64571;47.512;19.054;2022-11-15T01:17:26;100951.72;;;5.71;89.94
75891;BME280;64571;47.512;19.054;2022-11-15T01:20:47;100935.19;;;5.54;89.87
75891;BME280;64571;47.512;19.054;2022-11-15T01:24:12;100945.22;;;5.60;89.98
75891;BME280;64571;47.512;19.054;2022-11-15T01:27:33;100911.97;;;5.50;89.91
75891;BME280;64571;47.512;19.054;2022-11-15T01:30:53;100934.25;;;5.65;89.94
75891;BME280;64571;47.512;19.054;2022-11-15T01:34:14;100926.00;;;5.65;89.85
75891;BME280;64571;47.512;19.054;2022-11-15T01:37:35;100923.62;;;5.74;89.71
75891;BME280;64571;47.512;19.054;2022-11-15T01:40:56;100929.06;;;5.86;89.57
75891;BME280;64571;47.512;19.054;2022-11-15T01:44:40;100930.72;;;5.87;89.39
75891;BME280;64571;47.512;19.054;2022-11-15T01:48:01;100935.16;;;5.88;89.33
75891;BME280;64571;47.512;19.054;2022-11-15T01:51:25;100928.13;;;5.80;89.95
75891;BME280;64571;47.512;19.054;2022-11-15T01:54:51;100910.47;;;5.59;90.10
75891;BME280;64571;47.512;19.054;2022-11-15T01:58:13;100925.72;;;5.67;90.15
75891;BME280;64571;47.512;19.054;2022-11-15T02:01:34;100908.53;;;5.59;90.15
75891;BME280;64571;47.512;19.054;2022-11-15T02:04:55;100910.38;;;5.54;90.48
75891;BME280;64571;47.512;19.054;2022-11-15T02:08:16;100918.81;;;5.64;90.47
75891;BME280;64571;47.512;19.054;2022-11-15T02:11:41;100892.75;;;5.55;90.37
75891;BME280;64571;47.512;19.054;2022-11-15T02:15:04;100913.88;;;5.66;90.46
75891;BME280;64571;47.512;19.054;2022-11-15T02:18:34;100900.50;;;5.58;90.56
75891;BME280;64571;47.512;19.054;2022-11-15T02:22:16;100906.69;;;5.65;90.66
75891;BME280;64571;47.512;19.054;2022-11-15T02:25:41;100897.38;;;5.71;90.51
75891;BME280;64571;47.512;19.054;2022-11-15T02:36:02;100889.03;;;5.66;90.36
75891;BME280;64571;47.512;19.054;2022-11-15T02:42:55;100889.22;;;5.76;90.40
75891;BME280;64571;47.512;19.054;2022-11-15T02:47:02;100888.28;;;5.71;90.77
75891;BME280;64571;47.512;19.054;2022-11-15T02:50:34;100885.53;;;5.71;91.02
75891;BME280;64571;47.512;19.054;2022-11-15T02:53:55;100885.53;;;5.71;91.29
75891;BME280;64571;47.512;19.054;2022-11-15T02:57:17;100886.69;;;5.75;91.25
75891;BME280;64571;47.512;19.054;2022-11-15T03:00:53;100886.47;;;5.76;91.02
75891;BME280;64571;47.512;19.054;2022-11-15T03:04:34;100886.69;;;5.75;91.11
75891;BME280;64571;47.512;19.054;2022-11-15T03:11:22;100888.75;;;5.84;90.79
75891;BME280;64571;47.512;19.054;2022-11-15T03:21:39;100868.88;;;5.82;90.61
75891;BME280;64571;47.512;19.054;2022-11-15T03:25:05;100890.00;;;5.94;90.52
75891;BME280;64571;47.512;19.054;2022-11-15T03:28:37;100869.03;;;5.93;90.47
75891;BME280;64571;47.512;19.054;2022-11-15T03:32:03;100870.03;;;6.03;90.00
75891;BME280;64571;47.512;19.054;2022-11-15T03:35:28;100855.13;;;6.04;89.93
75891;BME280;64571;47.512;19.054;2022-11-15T03:38:53;100860.87;;;6.03;89.79
75891;BME280;64571;47.512;19.054;2022-11-15T03:42:31;100844.69;;;5.90;89.79
75891;BME280;64571;47.512;19.054;2022-11-15T03:45:58;100840.69;;;5.97;89.68
75891;BME280;64571;47.512;19.054;2022-11-15T03:49:28;100841.53;;;5.98;89.40
75891;BME280;64571;47.512;19.054;2022-11-15T03:52:53;100841.84;;;6.01;89.37
75891;BME280;64571;47.512;19.054;2022-11-15T03:56:15;100838.03;;;6.07;89.25
75891;BME280;64571;47.512;19.054;2022-11-15T03:59:36;100842.03;;;6.17;89.09
75891;BME280;64571;47.512;19.054;2022-11-15T04:02:57;100829.59;;;6.14;89.13
75891;BME280;64571;47.512;19.054;2022-11-15T04:06:18;100836.44;;;6.12;89.45
75891;BME280;64571;47.512;19.054;2022-11-15T04:09:38;100805.09;;;5.96;89.55
75891;BME280;64571;47.512;19.054;2022-11-15T04:13:20;100822.09;;;6.09;89.65
75891;BME280;64571;47.512;19.054;2022-11-15T04:16:41;100809.00;;;6.00;89.84
75891;BME280;64571;47.512;19.054;2022-11-15T04:20:05;100785.69;;;5.91;90.12
75891;BME280;64571;47.512;19.054;2022-11-15T04:23:45;100802.91;;;5.98;90.05
75891;BME280;64571;47.512;19.054;2022-11-15T04:27:24;100823.41;;;6.07;89.94
75891;BME280;64571;47.512;19.054;2022-11-15T04:30:45;100805.66;;;5.98;89.73
75891;BME280;64571;47.512;19.054;2022-11-15T04:34:06;100807.91;;;6.01;89.64
75891;BME280;64571;47.512;19.054;2022-11-15T04:37:27;100797.38;;;5.98;89.71
75891;BME280;64571;47.512;19.054;2022-11-15T04:40:48;100802.41;;;6.01;89.77
75891;BME280;64571;47.512;19.054;2022-11-15T04:44:09;100804.00;;;5.97;89.81
75891;BME280;64571;47.512;19.054;2022-11-15T04:47:29;100820.22;;;6.15;89.59
75891;BME280;64571;47.512;19.054;2022-11-15T04:50:50;100802.44;;;6.06;89.45
75891;BME280;64571;47.512;19.054;2022-11-15T04:54:11;100812.00;;;6.20;89.16
75891;BME280;64571;47.512;19.054;2022-11-15T04:57:32;100807.88;;;6.23;89.02
75891;BME280;64571;47.512;19.054;2022-11-15T05:00:52;100796.56;;;6.24;89.09
75891;BME280;64571;47.512;19.054;2022-11-15T05:04:13;100789.19;;;6.30;88.78
75891;BME280;64571;47.512;19.054;2022-11-15T05:07:40;100792.81;;;6.30;88.82
75891;BME280;64571;47.512;19.054;2022-11-15T05:11:01;100770.34;;;6.22;88.69
75891;BME280;64571;47.512;19.054;2022-11-15T05:14:22;100797.78;;;6.33;88.60
75891;BME280;64571;47.512;19.054;2022-11-15T05:17:43;100795.66;;;6.41;88.25
75891;BME280;64571;47.512;19.054;2022-11-15T05:21:05;100771.19;;;6.22;88.43
75891;BME280;64571;47.512;19.054;2022-11-15T05:24:26;100799.53;;;6.40;88.44
75891;BME280;64571;47.512;19.054;2022-11-15T05:27:47;100809.25;;;6.47;88.41
75891;BME280;64571;47.512;19.054;2022-11-15T05:31:13;100787.88;;;6.38;88.38
75891;BME280;64571;47.512;19.054;2022-11-15T05:34:34;100812.91;;;6.53;88.37
75891;BME280;64571;47.512;19.054;2022-11-15T05:37:55;100803.22;;;6.50;88.39
75891;BME280;64571;47.512;19.054;2022-11-15T05:41:19;100804.41;;;6.59;88.27
75891;BME280;64571;47.512;19.054;2022-11-15T05:44:45;100797.81;;;6.66;87.91
75891;BME280;64571;47.512;19.054;2022-11-15T05:48:08;100801.41;;;6.66;87.61
75891;BME280;64571;47.512;19.054;2022-11-15T05:51:30;100790.03;;;6.57;87.42
75891;BME280;64571;47.512;19.054;2022-11-15T05:54:52;100804.81;;;6.73;87.32
75891;BME280;64571;47.512;19.054;2022-11-15T05:58:12;100794.84;;;6.72;87.51
75891;BME280;64571;47.512;19.054;2022-11-15T06:01:34;100772.59;;;6.57;87.67
75891;BME280;64571;47.512;19.054;2022-11-15T06:04:55;100791.41;;;6.60;87.69
75891;BME280;64571;47.512;19.054;2022-11-15T06:08:16;100789.81;;;6.64;87.80
75891;BME280;64571;47.512;19.054;2022-11-15T06:11:37;100782.94;;;6.67;87.84
75891;BME280;64571;47.512;19.054;2022-11-15T06:14:57;100783.75;;;6.67;88.08
75891;BME280;64571;47.512;19.054;2022-11-15T06:18:18;100788.75;;;6.70;88.09
75891;BME280;64571;47.512;19.054;2022-11-15T06:21:39;100761.56;;;6.57;87.96
75891;BME280;64571;47.512;19.054;2022-11-15T06:25:00;100779.06;;;6.68;87.95
75891;BME280;64571;47.512;19.054;2022-11-15T06:28:28;100787.09;;;6.69;87.94
75891;BME280;64571;47.512;19.054;2022-11-15T06:31:50;100796.47;;;6.68;88.01
75891;BME280;64571;47.512;19.054;2022-11-15T06:35:11;100778.75;;;6.64;88.11
75891;BME280;64571;47.512;19.054;2022-11-15T06:38:32;100799.63;;;6.82;88.12
75891;BME280;64571;47.512;19.054;2022-11-15T06:41:53;100777.94;;;6.64;88.30
75891;BME280;64571;47.512;19.054;2022-11-15T06:45:14;100797.31;;;6.69;88.77
75891;BME280;64571;47.512;19.054;2022-11-15T06:48:35;100779.84;;;6.63;88.94
75891;BME280;64571;47.512;19.054;2022-11-15T06:51:56;100802.91;;;6.79;88.91
75891;BME280;64571;47.512;19.054;2022-11-15T06:55:17;100801.59;;;6.87;88.81
75891;BME280;64571;47.512;19.054;2022-11-15T06:58:38;100802.91;;;6.79;88.83
75891;BME280;64571;47.512;19.054;2022-11-15T07:01:59;100799.91;;;6.80;88.75
75891;BME280;64571;47.512;19.054;2022-11-15T07:05:19;100771.63;;;6.68;88.62
75891;BME280;64571;47.512;19.054;2022-11-15T07:08:41;100782.22;;;6.81;88.62
75891;BME280;64571;47.512;19.054;2022-11-15T07:12:02;100778.63;;;6.81;88.67
75891;BME280;64571;47.512;19.054;2022-11-15T07:15:27;100788.94;;;6.91;88.43
75891;BME280;64571;47.512;19.054;2022-11-15T07:18:48;100795.03;;;6.98;88.11
75891;BME280;64571;47.512;19.054;2022-11-15T07:22:08;100766.00;;;6.90;87.97
75891;BME280;64571;47.512;19.054;2022-11-15T07:25:30;100774.06;;;7.02;87.67
75891;BME280;64571;47.512;19.054;2022-11-15T07:28:51;100774.88;;;6.97;88.10
75891;BME280;64571;47.512;19.054;2022-11-15T07:32:11;100777.13;;;7.00;88.09
75891;BME280;64571;47.512;19.054;2022-11-15T07:35:33;100770.81;;;7.10;87.90
75891;BME280;64571;47.512;19.054;2022-11-15T07:38:54;100777.47;;;7.09;88.12
75891;BME280;64571;47.512;19.054;2022-11-15T07:42:15;100779.94;;;7.10;88.06
75891;BME280;64571;47.512;19.054;2022-11-15T07:45:55;100771.63;;;7.05;87.92
75891;BME280;64571;47.512;19.054;2022-11-15T07:49:19;100761.19;;;7.13;87.70
75891;BME280;64571;47.512;19.054;2022-11-15T07:52:39;100782.22;;;7.19;87.74
75891;BME280;64571;47.512;19.054;2022-11-15T07:56:00;100769.19;;;7.14;87.91
75891;BME280;64571;47.512;19.054;2022-11-15T07:59:21;100763.94;;;7.13;88.12
75891;BME280;64571;47.512;19.054;2022-11-15T08:02:42;100752.06;;;7.12;88.03
75891;BME280;64571;47.512;19.054;2022-11-15T08:06:04;100769.53;;;7.23;88.19
75891;BME280;64571;47.512;19.054;2022-11-15T08:09:25;100779.28;;;7.35;87.88
75891;BME280;64571;47.512;19.054;2022-11-15T08:12:46;100761.09;;;7.45;87.44
75891;BME280;64571;47.512;19.054;2022-11-15T08:16:08;100762.75;;;7.46;87.54
75891;BME280;64571;47.512;19.054;2022-11-15T08:19:29;100730.56;;;7.29;87.79
75891;BME280;64571;47.512;19.054;2022-11-15T08:22:50;100747.28;;;7.45;88.08
75891;BME280;64571;47.512;19.054;2022-11-15T08:26:10;100727.31;;;7.37;88.07
75891;BME280;64571;47.512;19.054;2022-11-15T08:29:31;100740.12;;;7.54;87.94
75891;BME280;64571;47.512;19.054;2022-11-15T08:32:53;100720.97;;;7.42;88.14
75891;BME280;64571;47.512;19.054;2022-11-15T08:36:15;100727.91;;;7.45;88.79
75891;BME280;64571;47.512;19.054;2022-11-15T08:39:36;100720.16;;;7.47;89.17
75891;BME280;64571;47.512;19.054;2022-11-15T08:42:58;100706.06;;;7.43;89.36
75891;BME280;64571;47.512;19.054;2022-11-15T08:46:19;100705.75;;;7.34;89.46
75891;BME280;64571;47.512;19.054;2022-11-15T08:49:40;100712.16;;;7.45;89.31
75891;BME280;64571;47.512;19.054;2022-11-15T08:53:06;100719.66;;;7.55;89.55
75891;BME280;64571;47.512;19.054;2022-11-15T08:56:27;100701.69;;;7.52;89.49
75891;BME280;64571;47.512;19.054;2022-11-15T08:59:48;100700.28;;;7.50;89.24
75891;BME280;64571;47.512;19.054;2022-11-15T09:03:09;100708.59;;;7.60;89.44
75891;BME280;64571;47.512;19.054;2022-11-15T09:06:30;100705.84;;;7.65;89.82
75891;BME280;64571;47.512;19.054;2022-11-15T09:09:51;100704.16;;;7.54;89.74
75891;BME280;64571;47.512;19.054;2022-11-15T09:13:12;100706.41;;;7.62;89.67
75891;BME280;64571;47.512;19.054;2022-11-15T09:16:34;100697.03;;;7.68;89.79
75891;BME280;64571;47.512;19.054;2022-11-15T09:19:55;100694.84;;;7.75;89.82
75891;BME280;64571;47.512;19.054;2022-11-15T09:23:16;100669.97;;;7.80;89.72
75891;BME280;64571;47.512;19.054;2022-11-15T09:26:37;100670.81;;;7.91;89.52
75891;BME280;64571;47.512;19.054;2022-11-15T09:29:58;100669.44;;;7.94;88.98
75891;BME280;64571;47.512;19.054;2022-11-15T09:33:19;100677.16;;;7.97;89.09
75891;BME280;64571;47.512;19.054;2022-11-15T09:36:40;100665.56;;;7.95;89.25
75891;BME280;64571;47.512;19.054;2022-11-15T09:40:01;100660.03;;;7.95;88.77
75891;BME280;64571;47.512;19.054;2022-11-15T09:43:59;100662.25;;;7.93;88.62
75891;BME280;64571;47.512;19.054;2022-11-15T09:50:51;100676.94;;;8.13;88.81
75891;BME280;64571;47.512;19.054;2022-11-15T10:00:41;100665.56;;;8.05;88.59
75891;BME280;64571;47.512;19.054;2022-11-15T10:03:55;100667.50;;;8.04;88.40
75891;BME280;64571;47.512;19.054;2022-11-15T10:16:50;100656.72;;;8.13;87.19
75891;BME280;64571;47.512;19.054;2022-11-15T10:20:14;100644.53;;;8.19;86.98
75891;BME280;64571;47.512;19.054;2022-11-15T10:23:21;100640.94;;;8.19;86.74
75891;BME280;64571;47.512;19.054;2022-11-15T10:26:24;100630.16;;;8.17;87.04
75891;BME280;64571;47.512;19.054;2022-11-15T10:29:27;100627.66;;;8.16;87.16
75891;BME280;64571;47.512;19.054;2022-11-15T10:32:29;100625.44;;;8.23;87.74
75891;BME280;64571;47.512;19.054;2022-11-15T10:35:35;100615.75;;;8.20;87.65
75891;BME280;64571;47.512;19.054;2022-11-15T10:41:52;100613.28;;;8.29;86.61
75891;BME280;64571;47.512;19.054;2022-11-15T10:44:55;100614.66;;;8.26;86.79
75891;BME280;64571;47.512;19.054;2022-11-15T10:51:24;100593.63;;;8.25;86.97
75891;BME280;64571;47.512;19.054;2022-11-15T10:54:40;100590.84;;;8.30;87.04
75891;BME280;64571;47.512;19.054;2022-11-15T10:57:50;100586.97;;;8.36;86.68
75891;BME280;64571;47.512;19.054;2022-11-15T11:00:53;100586.41;;;8.34;86.36
75891;BME280;64571;47.512;19.054;2022-11-15T11:04:05;100581.19;;;8.38;86.76
75891;BME280;64571;47.512;19.054;2022-11-15T11:07:21;100571.72;;;8.49;87.24
75891;BME280;64571;47.512;19.054;2022-11-15T11:10:24;100573.09;;;8.57;86.71
75891;BME280;64571;47.512;19.054;2022-11-15T11:13:46;100549.28;;;8.46;86.47
75891;BME280;64571;47.512;19.054;2022-11-15T11:16:54;100563.13;;;8.56;86.36
75891;BME280;64571;47.512;19.054;2022-11-15T11:20:30;100562.03;;;8.57;86.42
75891;BME280;64571;47.512;19.054;2022-11-15T11:23:57;100554.81;;;8.56;86.21
75891;BME280;64571;47.512;19.054;2022-11-15T11:43:36;100535.97;;;8.58;87.10
75891;BME280;64571;47.512;19.054;2022-11-15T11:46:56;100527.12;;;8.56;87.15
75891;BME280;64571;47.512;19.054;2022-11-15T11:50:18;100518.81;;;8.51;86.86
75891;BME280;64571;47.512;19.054;2022-11-15T11:53:29;100528.22;;;8.50;86.51
75891;BME280;64571;47.512;19.054;2022-11-15T11:56:35;100514.94;;;8.52;86.51
75891;BME280;64571;47.512;19.054;2022-11-15T11:59:49;100497.25;;;8.43;86.36
75891;BME280;64571;47.512;19.054;2022-11-15T12:13:05;100487.25;;;8.42;87.26
75891;BME280;64571;47.512;19.054;2022-11-15T12:16:18;100493.38;;;8.39;87.28
75891;BME280;64571;47.512;19.054;2022-11-15T12:19:22;100488.34;;;8.46;87.28
75891;BME280;64571;47.512;19.054;2022-11-15T12:25:54;100482.56;;;8.47;87.02
75891;BME280;64571;47.512;19.054;2022-11-15T12:29:09;100470.66;;;8.42;86.73
75891;BME280;64571;47.512;19.054;2022-11-15T12:32:35;100472.31;;;8.43;86.26
75891;BME280;64571;47.512;19.054;2022-11-15T12:35:41;100470.06;;;8.50;86.37
75891;BME280;64571;47.512;19.054;2022-11-15T12:44:59;100454.03;;;8.36;86.40
75891;BME280;64571;47.512;19.054;2022-11-15T12:51:22;100455.44;;;8.34;85.91
75891;BME280;64571;47.512;19.054;2022-11-15T12:57:33;100449.91;;;8.39;86.66
75891;BME280;64571;47.512;19.054;2022-11-15T13:00:37;100445.72;;;8.31;86.08
75891;BME280;64571;47.512;19.054;2022-11-15T13:07:55;100443.25;;;8.30;87.27
75891;BME280;64571;47.512;19.054;2022-11-15T13:14:45;100435.78;;;8.25;87.83
75891;BME280;64571;47.512;19.054;2022-11-15T13:17:52;100435.53;;;8.17;88.00
75891;BME280;64571;47.512;19.054;2022-11-15T13:20:55;100424.19;;;8.13;88.82
75891;BME280;64571;47.512;19.054;2022-11-15T13:24:04;100425.28;;;8.17;88.37
75891;BME280;64571;47.512;19.054;2022-11-15T13:27:18;100424.47;;;8.17;88.05
75891;BME280;64571;47.512;19.054;2022-11-15T13:30:29;100439.41;;;8.21;88.19
75891;BME280;64571;47.512;19.054;2022-11-15T13:33:36;100433.59;;;8.17;87.99
75891;BME280;64571;47.512;19.054;2022-11-15T13:36:39;100435.84;;;8.15;88.07
75891;BME280;64571;47.512;19.054;2022-11-15T13:39:42;100409.84;;;8.01;88.05
75891;BME280;64571;47.512;19.054;2022-11-15T13:42:44;100402.09;;;8.03;87.91
75891;BME280;64571;47.512;19.054;2022-11-15T13:46:23;100415.88;;;8.18;87.99
75891;BME280;64571;47.512;19.054;2022-11-15T13:49:29;100414.50;;;8.21;87.69
75891;BME280;64571;47.512;19.054;2022-11-15T13:52:35;100412.25;;;8.23;87.73
75891;BME280;64571;47.512;19.054;2022-11-15T13:55:39;100386.78;;;8.26;87.60
75891;BME280;64571;47.512;19.054;2022-11-15T13:58:41;100380.16;;;8.22;87.39
75891;BME280;64571;47.512;19.054;2022-11-15T14:01:45;100389.81;;;8.29;88.12
75891;BME280;64571;47.512;19.054;2022-11-15T14:04:51;100366.84;;;8.29;88.76
75891;BME280;64571;47.512;19.054;2022-11-15T14:08:00;100384.28;;;8.29;88.74
75891;BME280;64571;47.512;19.054;2022-11-15T14:11:18;100364.41;;;8.17;88.56
75891;BME280;64571;47.512;19.054;2022-11-15T14:14:25;100387.62;;;8.21;88.60
75891;BME280;64571;47.512;19.054;2022-11-15T14:23:36;100388.22;;;8.08;88.07
75891;BME280;64571;47.512;19.054;2022-11-15T14:26:38;100362.81;;;7.96;88.20
75891;BME280;64571;47.512;19.054;2022-11-15T14:29:41;100359.53;;;7.89;87.19
75891;BME280;64571;47.512;19.054;2022-11-15T14:32:48;100368.34;;;7.96;87.27
75891;BME280;64571;47.512;19.054;2022-11-15T14:35:52;100363.66;;;7.86;87.12
75891;BME280;64571;47.512;19.054;2022-11-15T14:38:54;100358.44;;;7.84;87.37
75891;BME280;64571;47.512;19.054;2022-11-15T14:41:57;100354.25;;;7.87;87.65
75891;BME280;64571;47.512;19.054;2022-11-15T14:44:59;100356.47;;;7.85;88.23
75891;BME280;64571;47.512;19.054;2022-11-15T14:48:02;100339.59;;;7.81;88.40
75891;BME280;64571;47.512;19.054;2022-11-15T14:51:16;100345.37;;;7.95;88.02
75891;BME280;64571;47.512;19.054;2022-11-15T14:54:19;100325.19;;;7.90;87.71
75891;BME280;64571;47.512;19.054;2022-11-15T14:57:22;100313.56;;;7.87;87.84
75891;BME280;64571;47.512;19.054;2022-11-15T15:00:24;100335.72;;;7.82;88.19
75891;BME280;64571;47.512;19.054;2022-11-15T15:03:31;100326.56;;;7.87;88.08
75891;BME280;64571;47.512;19.054;2022-11-15T15:06:34;100334.63;;;7.78;88.59
75891;BME280;64571;47.512;19.054;2022-11-15T15:09:36;100324.16;;;7.75;88.62
75891;BME280;64571;47.512;19.054;2022-11-15T15:12:40;100330.47;;;7.86;88.56
75891;BME280;64571;47.512;19.054;2022-11-15T15:15:42;100335.72;;;7.93;88.31
75891;BME280;64571;47.512;19.054;2022-11-15T15:18:45;100316.62;;;7.86;88.62
75891;BME280;64571;47.512;19.054;2022-11-15T15:21:47;100319.94;;;7.93;88.64
75891;BME280;64571;47.512;19.054;2022-11-15T15:24:50;100324.63;;;7.87;88.90
75891;BME280;64571;47.512;19.054;2022-11-15T15:27:53;100322.41;;;7.95;88.84
75891;BME280;64571;47.512;19.054;2022-11-15T15:30:56;100322.41;;;7.95;88.47
75891;BME280;64571;47.512;19.054;2022-11-15T15:33:58;100310.81;;;7.87;88.02
75891;BME280;64571;47.512;19.054;2022-11-15T15:37:23;100317.97;;;7.99;88.06
75891;BME280;64571;47.512;19.054;2022-11-15T15:40:28;100329.31;;;7.92;87.82
75891;BME280;64571;47.512;19.054;2022-11-15T15:43:31;100328.22;;;7.98;87.78
75891;BME280;64571;47.512;19.054;2022-11-15T15:46:34;100335.13;;;7.96;88.03
75891;BME280;64571;47.512;19.054;2022-11-15T15:49:36;100322.09;;;8.01;88.15
75891;BME280;64571;47.512;19.054;2022-11-15T15:52:38;100324.31;;;7.99;88.14
75891;BME280;64571;47.512;19.054;2022-11-15T15:55:41;100321.84;;;7.98;87.97
75891;BME280;64571;47.512;19.054;2022-11-15T15:58:43;100304.75;;;7.80;88.24
75891;BME280;64571;47.512;19.054;2022-11-15T16:01:46;100319.13;;;7.93;88.32
75891;BME280;64571;47.512;19.054;2022-11-15T16:04:49;100303.09;;;7.74;88.44
75891;BME280;64571;47.512;19.054;2022-11-15T16:07:51;100299.28;;;7.70;88.59
75891;BME280;64571;47.512;19.054;2022-11-15T16:10:54;100301.19;;;7.75;88.97
75891;BME280;64571;47.512;19.054;2022-11-15T16:13:56;100293.16;;;7.73;88.84
75891;BME280;64571;47.512;19.054;2022-11-15T16:16:59;100311.91;;;7.86;88.95
75891;BME280;64571;47.512;19.054;2022-11-15T16:20:01;100317.44;;;7.92;89.04
75891;BME280;64571;47.512;19.054;2022-11-15T16:23:07;100294.84;;;7.64;89.01
75891;BME280;64571;47.512;19.054;2022-11-15T16:29:25;100289.00;;;7.76;88.89
75891;BME280;64571;47.512;19.054;2022-11-15T16:32:27;100312.72;;;7.92;88.99
75891;BME280;64571;47.512;19.054;2022-11-15T16:35:30;100280.16;;;7.74;89.14
75891;BME280;64571;47.512;19.054;2022-11-15T16:38:33;100306.09;;;7.93;89.17
75891;BME280;64571;47.512;19.054;2022-11-15T16:41:36;100306.66;;;7.90;89.41
75891;BME280;64571;47.512;19.054;2022-11-15T16:44:38;100285.41;;;7.80;89.46
75891;BME280;64571;47.512;19.054;2022-11-15T16:47:41;100297.81;;;7.93;89.23
75891;BME280;64571;47.512;19.054;2022-11-15T16:50:43;100293.09;;;7.94;89.32
75891;BME280;64571;47.512;19.054;2022-11-15T16:53:47;100275.69;;;7.83;89.38
75891;BME280;64571;47.512;19.054;2022-11-15T16:56:50;100277.37;;;7.84;89.75
75891;BME280;64571;47.512;19.054;2022-11-15T16:59:53;100275.41;;;7.90;89.67
75891;BME280;64571;47.512;19.054;2022-11-15T17:02:56;100282.53;;;8.01;89.68
75891;BME280;64571;47.512;19.054;2022-11-15T17:05:59;100280.09;;;7.89;89.88
75891;BME280;64571;47.512;19.054;2022-11-15T17:09:01;100275.69;;;7.83;89.99
75891;BME280;64571;47.512;19.054;2022-11-15T17:12:05;100284.81;;;7.89;90.19
75891;BME280;64571;47.512;19.054;2022-11-15T17:15:09;100267.69;;;7.81;90.19
75891;BME280;64571;47.512;19.054;2022-11-15T17:18:13;100282.06;;;7.83;90.30
75891;BME280;64571;47.512;19.054;2022-11-15T17:21:19;100257.19;;;7.73;90.34
75891;BME280;64571;47.512;19.054;2022-11-15T17:24:21;100277.37;;;7.84;90.29
75891;BME280;64571;47.512;19.054;2022-11-15T17:27:24;100272.38;;;7.81;90.62
75891;BME280;64571;47.512;19.054;2022-11-15T17:30:26;100258.84;;;7.79;90.78
75891;BME280;64571;47.512;19.054;2022-11-15T17:33:30;100270.75;;;7.80;91.10
75891;BME280;64571;47.512;19.054;2022-11-15T17:36:33;100264.37;;;7.79;91.21
75891;BME280;64571;47.512;19.054;2022-11-15T17:39:35;100263.03;;;7.72;91.48
75891;BME280;64571;47.512;19.054;2022-11-15T17:42:41;100255.84;;;7.71;91.65
75891;BME280;64571;47.512;19.054;2022-11-15T17:45:43;100251.63;;;7.78;91.63
75891;BME280;64571;47.512;19.054;2022-11-15T17:48:47;100249.41;;;7.85;91.25
75891;BME280;64571;47.512;19.054;2022-11-15T17:51:49;100241.09;;;7.85;91.36
75891;BME280;64571;47.512;19.054;2022-11-15T17:54:52;100233.91;;;7.84;91.39
75891;BME280;64571;47.512;19.054;2022-11-15T17:57:54;100214.06;;;7.72;91.45
75891;BME280;64571;47.512;19.054;2022-11-15T18:01:16;100227.28;;;7.85;91.77
75891;BME280;64571;47.512;19.054;2022-11-15T18:04:18;100225.31;;;7.86;91.77
75891;BME280;64571;47.512;19.054;2022-11-15T18:07:21;100203.00;;;7.72;91.69
75891;BME280;64571;47.512;19.054;2022-11-15T18:10:23;100215.41;;;7.80;92.12
75891;BME280;64571;47.512;19.054;2022-11-15T18:13:26;100211.78;;;7.84;91.74
75891;BME280;64571;47.512;19.054;2022-11-15T18:16:31;100198.56;;;7.71;92.30
75891;BME280;64571;47.512;19.054;2022-11-15T18:19:33;100197.47;;;7.72;92.17
75891;BME280;64571;47.512;19.054;2022-11-15T18:22:37;100210.13;;;7.89;91.89
75891;BME280;64571;47.512;19.054;2022-11-15T18:25:40;100212.28;;;7.92;91.65
75891;BME280;64571;47.512;19.054;2022-11-15T18:28:45;100209.22;;;7.98;92.14
75891;BME280;64571;47.512;19.054;2022-11-15T18:31:48;100207.34;;;7.89;91.27
75891;BME280;64571;47.512;19.054;2022-11-15T18:34:51;100174.12;;;7.89;91.29
75891;BME280;64571;47.512;19.054;2022-11-15T18:37:54;100184.94;;;7.85;91.34
75891;BME280;64571;47.512;19.054;2022-11-15T18:41:04;100196.50;;;7.97;91.31
75891;BME280;64571;47.512;19.054;2022-11-15T18:44:07;100198.41;;;7.97;91.32
75891;BME280;64571;47.512;19.054;2022-11-15T18:47:10;100199.53;;;7.96;91.60